createdAt,value
2019-02-21T00:05:44.144Z,100949.52
2019-02-21T00:08:13.459Z,100955.36
2019-02-21T00:10:42.841Z,100952.65
2019-02-21T00:13:13.169Z,100952.65
2019-02-21T00:15:42.498Z,100960.66
2019-02-21T00:18:11.979Z,100951.44
2019-02-21T00:20:41.478Z,100950.59
2019-02-21T00:23:11.840Z,100952.41
2019-02-21T00:25:41.194Z,100953.38
2019-02-21T00:28:10.657Z,100952.15
2019-02-21T00:30:39.991Z,100951.05
2019-02-21T00:33:09.279Z,100950.66
2019-02-21T00:35:38.666Z,100952.58
2019-02-21T00:38:08.235Z,100952.49
2019-02-21T00:40:37.501Z,100947.34
2019-02-21T00:43:06.881Z,100947.95
2019-02-21T00:45:36.216Z,100954.97
2019-02-21T00:48:05.600Z,100955.57
2019-02-21T00:50:34.903Z,100952.28
2019-02-21T00:53:04.269Z,100955.25
2019-02-21T00:55:33.616Z,100952.63
2019-02-21T00:58:03.119Z,100949.61
2019-02-21T01:00:33.910Z,100953.13
2019-02-21T01:03:04.069Z,100959.05
2019-02-21T01:05:33.369Z,100963.30
2019-02-21T01:08:02.699Z,100961.23
2019-02-21T01:10:32.024Z,100962.95
2019-02-21T01:13:02.017Z,100964.39
2019-02-21T01:15:31.425Z,100961.34
2019-02-21T01:18:01.434Z,100966.66
2019-02-21T01:20:31.588Z,100967.31
2019-02-21T01:23:00.956Z,100965.38
2019-02-21T01:25:30.356Z,100964.73
2019-02-21T01:27:59.652Z,100956.95
2019-02-21T01:30:29.081Z,100965.11
2019-02-21T01:32:58.436Z,100964.03
2019-02-21T01:35:27.947Z,100963.45
2019-02-21T01:37:57.312Z,100961.91
2019-02-21T01:40:26.641Z,100963.89
2019-02-21T01:42:56.000Z,100963.95
2019-02-21T01:45:25.295Z,100964.56
2019-02-21T01:47:54.679Z,100961.91
2019-02-21T01:50:24.168Z,100967.97
2019-02-21T01:52:53.549Z,100961.47
2019-02-21T01:55:22.919Z,100959.41
2019-02-21T01:57:52.236Z,100963.75
2019-02-21T02:00:22.526Z,100967.75
2019-02-21T02:02:51.848Z,100970.20
2019-02-21T02:05:21.800Z,100965.98
2019-02-21T02:07:51.224Z,100959.95
2019-02-21T02:10:20.586Z,100965.55
2019-02-21T02:12:49.973Z,100966.72
2019-02-21T02:15:19.325Z,100973.59
2019-02-21T02:17:48.760Z,100973.92
2019-02-21T02:20:18.098Z,100962.70
2019-02-21T02:22:47.509Z,100966.69
2019-02-21T02:25:16.867Z,100970.80
2019-02-21T02:27:46.189Z,100961.58
2019-02-21T02:30:15.921Z,100961.91
2019-02-21T02:32:45.208Z,100960.27
2019-02-21T02:35:14.706Z,100962.92
2019-02-21T02:37:44.080Z,100963.88
2019-02-21T02:40:13.396Z,100971.13
2019-02-21T02:42:42.872Z,100970.33
2019-02-21T02:45:12.390Z,100974.44
2019-02-21T02:47:41.657Z,100982.11
2019-02-21T02:50:11.033Z,100982.53
2019-02-21T02:52:40.351Z,100991.02
2019-02-21T02:55:09.702Z,100992.72
2019-02-21T02:57:39.260Z,100989.40
2019-02-21T03:00:11.543Z,100993.15
2019-02-21T03:02:40.991Z,100995.95
2019-02-21T03:05:11.195Z,100989.83
2019-02-21T03:07:49.838Z,100989.61
2019-02-21T03:10:19.250Z,100988.06
2019-02-21T03:12:48.956Z,100995.91
2019-02-21T03:15:18.297Z,100998.83
2019-02-21T03:17:47.607Z,101002.27
2019-02-21T03:20:16.896Z,100992.45
2019-02-21T03:22:46.257Z,101000.55
2019-02-21T03:25:15.646Z,100993.56
2019-02-21T03:27:45.068Z,101000.89
2019-02-21T03:30:14.438Z,101001.77
2019-02-21T03:32:43.826Z,101005.66
2019-02-21T03:35:13.118Z,101007.45
2019-02-21T03:37:42.554Z,101004.78
2019-02-21T03:40:11.927Z,101010.22
2019-02-21T03:42:41.224Z,101017.27
2019-02-21T03:45:11.501Z,101024.31
2019-02-21T03:47:40.862Z,101021.89
2019-02-21T03:50:10.351Z,101023.28
2019-02-21T03:52:39.793Z,101030.96
2019-02-21T03:55:09.904Z,101031.63
2019-02-21T03:57:39.320Z,101025.98
2019-02-21T04:00:08.985Z,101022.58
2019-02-21T04:02:38.265Z,101025.25
2019-02-21T04:05:08.283Z,101024.45
2019-02-21T04:07:37.587Z,101029.08
2019-02-21T04:10:07.191Z,101038.52
2019-02-21T04:12:36.574Z,101032.23
2019-02-21T04:15:06.029Z,101037.45
2019-02-21T04:17:35.341Z,101031.29
2019-02-21T04:20:05.724Z,101027.47
2019-02-21T04:22:35.037Z,101022.70
2019-02-21T04:25:04.412Z,101013.33
2019-02-21T04:27:33.775Z,101011.23
2019-02-21T04:30:04.456Z,101012.45
2019-02-21T04:32:34.423Z,101009.44
2019-02-21T04:35:03.809Z,101010.98
2019-02-21T04:37:34.465Z,101004.12
2019-02-21T04:40:05.838Z,101012.22
2019-02-21T04:42:35.299Z,101004.36
2019-02-21T04:45:04.803Z,101006.08
2019-02-21T04:47:34.134Z,101001.17
2019-02-21T04:50:03.460Z,100996.13
2019-02-21T04:52:33.412Z,100996.97
2019-02-21T04:55:02.692Z,100994.38
2019-02-21T04:57:32.001Z,100992.77
2019-02-21T05:00:01.480Z,100992.63
2019-02-21T05:02:30.769Z,100988.45
2019-02-21T05:05:00.380Z,100984.95
2019-02-21T05:07:29.419Z,100986.73
2019-02-21T05:09:58.814Z,100983.72
2019-02-21T05:12:28.147Z,100983.34
2019-02-21T05:14:57.492Z,100982.84
2019-02-21T05:17:26.852Z,100986.63
2019-02-21T05:19:56.209Z,100979.63
2019-02-21T05:22:25.716Z,100975.63
2019-02-21T05:24:55.019Z,100985.05
2019-02-21T05:27:28.134Z,100988.34
2019-02-21T05:29:57.497Z,100995.85
2019-02-21T05:32:40.632Z,100994.41
2019-02-21T05:35:24.161Z,101002.09
2019-02-21T05:38:00.501Z,101000.13
2019-02-21T05:40:47.471Z,100997.70
2019-02-21T05:43:22.863Z,100999.22
2019-02-21T05:45:57.396Z,100998.27
2019-02-21T05:48:30.803Z,101000.86
2019-02-21T05:51:06.170Z,100994.48
2019-02-21T05:53:39.581Z,100989.78
2019-02-21T05:56:12.942Z,100991.82
2019-02-21T05:59:45.226Z,100996.87
2019-02-21T06:02:35.831Z,100997.74
2019-02-21T06:05:10.421Z,100989.96
2019-02-21T06:07:45.787Z,100989.30
2019-02-21T06:10:24.018Z,100998.52
2019-02-21T06:13:05.252Z,101001.95
2019-02-21T06:15:40.624Z,101004.37
2019-02-21T06:18:17.573Z,101005.80
2019-02-21T06:20:51.747Z,101010.47
2019-02-21T06:23:32.173Z,101015.09
2019-02-21T06:26:06.905Z,101018.98
2019-02-21T06:28:42.251Z,101017.97
2019-02-21T06:31:15.732Z,101017.02
2019-02-21T06:33:45.097Z,101024.13
2019-02-21T06:36:14.993Z,101020.45
2019-02-21T06:38:44.438Z,101025.85
2019-02-21T06:41:13.779Z,101023.70
2019-02-21T06:43:43.686Z,101040.11
2019-02-21T06:46:13.850Z,101028.41
2019-02-21T06:48:42.386Z,101038.90
2019-02-21T06:51:11.715Z,101031.39
2019-02-21T06:53:41.026Z,101034.76
2019-02-21T06:56:10.417Z,101033.07
2019-02-21T06:58:42.068Z,101030.90
2019-02-21T07:01:09.230Z,101033.42
2019-02-21T07:03:39.511Z,101035.53
2019-02-21T07:06:09.351Z,101038.69
2019-02-21T07:08:40.088Z,101020.03
2019-02-21T07:11:08.533Z,101016.66
2019-02-21T07:13:37.844Z,101026.27
2019-02-21T07:16:07.200Z,101026.30
2019-02-21T07:18:36.515Z,101033.98
2019-02-21T07:21:05.812Z,101027.28
2019-02-21T07:23:43.161Z,101025.62
2019-02-21T07:26:08.333Z,101039.48
2019-02-21T07:28:37.695Z,101033.36
2019-02-21T07:31:07.031Z,101041.53
2019-02-21T07:33:36.387Z,101035.49
2019-02-21T07:36:05.818Z,101036.77
2019-02-21T07:38:35.720Z,101031.62
2019-02-21T07:41:05.157Z,101043.84
2019-02-21T07:43:34.762Z,101042.42
2019-02-21T07:46:06.767Z,101069.39
2019-02-21T07:48:33.440Z,101060.39
2019-02-21T07:51:02.859Z,101068.34
2019-02-21T07:53:32.240Z,101065.96
2019-02-21T07:56:01.612Z,101067.23
2019-02-21T07:58:30.952Z,101073.97
2019-02-21T08:01:00.355Z,101082.05
2019-02-21T08:03:41.142Z,101090.81
2019-02-21T08:05:59.020Z,101089.86
2019-02-21T08:08:28.402Z,101097.65
2019-02-21T08:10:57.836Z,101099.88
2019-02-21T08:13:27.211Z,101099.33
2019-02-21T08:15:56.602Z,101097.13
2019-02-21T08:18:25.947Z,101100.34
2019-02-21T08:20:55.432Z,101108.41
2019-02-21T08:23:24.769Z,101106.62
2019-02-21T08:25:54.129Z,101104.72
2019-02-21T08:28:23.445Z,101105.67
2019-02-21T08:30:52.896Z,101107.07
2019-02-21T08:33:29.790Z,101115.55
2019-02-21T08:35:59.164Z,101120.05
2019-02-21T08:38:28.498Z,101114.70
2019-02-21T08:40:58.556Z,101115.94
2019-02-21T08:43:27.844Z,101115.47
2019-02-21T08:45:57.691Z,101127.49
2019-02-21T08:48:26.484Z,101129.11
2019-02-21T08:50:56.734Z,101130.16
2019-02-21T08:53:27.966Z,101126.38
2019-02-21T08:55:56.051Z,101125.56
2019-02-21T08:58:24.591Z,101130.94
2019-02-21T09:00:54.593Z,101132.77
2019-02-21T09:03:23.290Z,101137.62
2019-02-21T09:05:52.739Z,101126.20
2019-02-21T09:08:32.664Z,101127.09
2019-02-21T09:10:51.672Z,101131.25
2019-02-21T09:13:23.600Z,101139.05
2019-02-21T09:15:50.520Z,101124.84
2019-02-21T09:18:19.905Z,101121.37
2019-02-21T09:20:49.301Z,101119.44
2019-02-21T09:23:18.677Z,101135.73
2019-02-21T09:25:49.629Z,101132.81
2019-02-21T09:28:17.383Z,101128.44
2019-02-21T09:30:46.821Z,101126.61
2019-02-21T09:33:17.733Z,101132.20
2019-02-21T09:35:46.644Z,101128.72
2019-02-21T09:38:15.949Z,101135.51
2019-02-21T09:40:45.470Z,101136.23
2019-02-21T09:43:14.783Z,101139.78
2019-02-21T09:45:44.254Z,101143.41
2019-02-21T09:48:13.595Z,101146.00
2019-02-21T09:50:43.013Z,101147.55
2019-02-21T09:53:12.388Z,101150.73
2019-02-21T09:55:41.757Z,101159.71
2019-02-21T09:58:11.078Z,101157.16
2019-02-21T10:00:40.487Z,101145.59
2019-02-21T10:03:09.844Z,101145.37
2019-02-21T10:05:39.187Z,101139.90
2019-02-21T10:08:08.583Z,101132.21
2019-02-21T10:10:37.945Z,101145.59
2019-02-21T10:13:07.285Z,101136.86
2019-02-21T10:15:37.551Z,101132.95
2019-02-21T10:18:06.944Z,101143.19
2019-02-21T10:20:36.302Z,101145.11
2019-02-21T10:23:05.765Z,101147.32
2019-02-21T10:25:35.114Z,101152.66
2019-02-21T10:28:04.549Z,101160.22
2019-02-21T10:30:36.276Z,101145.59
2019-02-21T10:33:03.312Z,101155.33
2019-02-21T10:35:32.662Z,101156.90
2019-02-21T10:38:02.040Z,101156.03
2019-02-21T10:40:33.325Z,101162.03
2019-02-21T10:43:01.720Z,101154.22
2019-02-21T10:45:31.573Z,101158.71
2019-02-21T10:48:00.969Z,101161.02
2019-02-21T10:50:30.324Z,101163.83
2019-02-21T10:53:00.515Z,101167.56
2019-02-21T10:55:29.912Z,101167.69
2019-02-21T10:57:59.288Z,101170.61
2019-02-21T11:00:29.226Z,101169.30
2019-02-21T11:02:58.646Z,101164.31
2019-02-21T11:05:27.991Z,101164.47
2019-02-21T11:07:57.400Z,101162.23
2019-02-21T11:10:27.792Z,101162.98
2019-02-21T11:12:57.069Z,101166.47
2019-02-21T11:15:26.941Z,101159.99
2019-02-21T11:17:56.304Z,101153.30
2019-02-21T11:20:25.673Z,101151.36
2019-02-21T11:22:54.972Z,101152.42
2019-02-21T11:25:24.341Z,101158.06
2019-02-21T11:27:53.676Z,101149.77
2019-02-21T11:30:23.038Z,101155.97
2019-02-21T11:32:52.378Z,101146.97
2019-02-21T11:35:21.804Z,101148.59
2019-02-21T11:37:51.400Z,101152.33
2019-02-21T11:40:20.990Z,101152.95
2019-02-21T11:42:50.432Z,101143.75
2019-02-21T11:45:19.797Z,101148.36
2019-02-21T11:47:49.187Z,101140.69
2019-02-21T11:50:18.608Z,101145.97
2019-02-21T11:52:47.976Z,101139.95
2019-02-21T11:55:19.745Z,101143.94
2019-02-21T11:57:49.080Z,101144.32
2019-02-21T12:00:22.449Z,101146.86
2019-02-21T12:02:51.765Z,101141.87
2019-02-21T12:05:30.612Z,101135.63
2019-02-21T12:07:51.399Z,101135.31
2019-02-21T12:10:20.832Z,101136.38
2019-02-21T12:12:50.386Z,101127.38
2019-02-21T12:15:19.771Z,101120.36
2019-02-21T12:17:49.070Z,101119.04
2019-02-21T12:20:18.371Z,101122.67
2019-02-21T12:22:47.897Z,101115.31
2019-02-21T12:25:17.436Z,101103.33
2019-02-21T12:27:46.903Z,101105.88
2019-02-21T12:30:17.871Z,101100.05
2019-02-21T12:32:47.388Z,101093.65
2019-02-21T12:35:16.823Z,101096.52
2019-02-21T12:37:46.228Z,101091.53
2019-02-21T12:40:17.795Z,101093.50
2019-02-21T12:42:47.238Z,101090.79
2019-02-21T12:45:19.263Z,101089.95
2019-02-21T12:47:52.902Z,101085.72
2019-02-21T12:50:18.035Z,101088.20
2019-02-21T12:52:47.374Z,101085.93
2019-02-21T12:55:27.003Z,101080.73
2019-02-21T12:57:46.095Z,101073.28
2019-02-21T13:00:18.352Z,101072.08
2019-02-21T13:02:47.747Z,101072.94
2019-02-21T13:05:17.118Z,101072.75
2019-02-21T13:07:46.624Z,101074.14
2019-02-21T13:10:17.741Z,101073.09
2019-02-21T13:12:47.109Z,101084.63
2019-02-21T13:15:16.553Z,101086.20
2019-02-21T13:17:45.970Z,101079.77
2019-02-21T13:20:15.363Z,101086.92
2019-02-21T13:22:44.850Z,101085.90
2019-02-21T13:25:14.409Z,101095.89
2019-02-21T13:27:43.786Z,101093.98
2019-02-21T13:30:15.209Z,101100.56
2019-02-21T13:32:44.698Z,101097.60
2019-02-21T13:35:14.262Z,101103.32
2019-02-21T13:37:43.711Z,101103.45
2019-02-21T13:40:14.269Z,101107.48
2019-02-21T13:42:43.834Z,101094.91
2019-02-21T13:45:17.167Z,101092.56
2019-02-21T13:47:43.532Z,101087.63
2019-02-21T13:50:15.320Z,101076.06
2019-02-21T13:52:44.674Z,101081.27
2019-02-21T13:55:14.047Z,101082.22
2019-02-21T13:57:43.861Z,101077.75
2019-02-21T14:00:16.712Z,101080.55
2019-02-21T14:02:46.110Z,101076.28
2019-02-21T14:05:15.351Z,101080.05
2019-02-21T14:07:51.415Z,101077.14
2019-02-21T14:10:20.872Z,101083.97
2019-02-21T14:12:50.552Z,101079.68
2019-02-21T14:15:22.710Z,101073.50
2019-02-21T14:17:52.015Z,101067.78
2019-02-21T14:20:21.447Z,101064.25
2019-02-21T14:22:50.881Z,101059.00
2019-02-21T14:25:20.336Z,101063.45
2019-02-21T14:27:49.731Z,101065.83
2019-02-21T14:30:19.175Z,101053.41
2019-02-21T14:32:49.554Z,101062.61
2019-02-21T14:35:18.907Z,101058.22
2019-02-21T14:37:48.288Z,101058.66
2019-02-21T14:40:17.765Z,101064.32
2019-02-21T14:42:47.108Z,101061.21
2019-02-21T14:45:18.640Z,101064.73
2019-02-21T14:47:48.098Z,101068.91
2019-02-21T14:50:17.468Z,101072.45
2019-02-21T14:52:46.903Z,101076.88
2019-02-21T14:55:16.333Z,101077.27
2019-02-21T14:57:45.803Z,101076.30
2019-02-21T15:00:20.066Z,101072.11
2019-02-21T15:02:49.404Z,101071.81
2019-02-21T15:05:19.249Z,101072.05
2019-02-21T15:07:48.598Z,101086.76
2019-02-21T15:10:18.020Z,101084.04
2019-02-21T15:12:47.321Z,101083.21
2019-02-21T15:15:18.141Z,101068.03
2019-02-21T15:17:47.566Z,101073.23
2019-02-21T15:20:17.576Z,101072.23
2019-02-21T15:22:47.095Z,101079.00
2019-02-21T15:25:16.409Z,101076.91
2019-02-21T15:27:46.268Z,101078.39
2019-02-21T15:30:18.018Z,101075.80
2019-02-21T15:32:47.410Z,101072.09
2019-02-21T15:35:19.311Z,101067.17
2019-02-21T15:37:46.206Z,101070.41
2019-02-21T15:40:16.204Z,101059.48
2019-02-21T15:42:46.020Z,101057.72
2019-02-21T15:45:22.886Z,101053.92
2019-02-21T15:47:47.840Z,101061.16
2019-02-21T15:50:19.749Z,101060.51
2019-02-21T15:52:46.704Z,101061.88
2019-02-21T15:55:16.462Z,101058.79
2019-02-21T15:57:45.841Z,101061.06
2019-02-21T16:00:17.513Z,101066.72
2019-02-21T16:02:46.963Z,101054.08
2019-02-21T16:05:16.393Z,101063.95
2019-02-21T16:07:45.738Z,101067.67
2019-02-21T16:10:18.674Z,101063.60
2019-02-21T16:12:48.514Z,101070.81
2019-02-21T16:15:18.068Z,101063.59
2019-02-21T16:17:47.530Z,101065.63
2019-02-21T16:20:17.172Z,101067.57
2019-02-21T16:22:46.465Z,101060.70
2019-02-21T16:25:19.424Z,101066.28
2019-02-21T16:27:48.931Z,101068.33
2019-02-21T16:30:18.229Z,101069.45
2019-02-21T16:32:47.665Z,101069.48
2019-02-21T16:35:17.065Z,101077.16
2019-02-21T16:37:46.461Z,101078.79
2019-02-21T16:40:15.973Z,101075.33
2019-02-21T16:42:45.969Z,101078.27
2019-02-21T16:45:16.637Z,101085.56
2019-02-21T16:47:46.088Z,101087.98
2019-02-21T16:50:15.644Z,101090.00
2019-02-21T16:52:46.247Z,101099.92
2019-02-21T16:55:18.156Z,101105.02
2019-02-21T16:57:47.935Z,101109.34
2019-02-21T17:00:19.001Z,101110.97
2019-02-21T17:02:48.490Z,101108.84
2019-02-21T17:05:17.838Z,101102.90
2019-02-21T17:07:47.199Z,101104.16
2019-02-21T17:10:16.536Z,101100.21
2019-02-21T17:12:45.915Z,101099.93
2019-02-21T17:15:15.277Z,101104.61
2019-02-21T17:17:45.122Z,101102.25
2019-02-21T17:20:15.835Z,101108.97
2019-02-21T17:22:45.280Z,101115.08
2019-02-21T17:25:15.295Z,101110.59
2019-02-21T17:27:44.674Z,101124.53
2019-02-21T17:30:16.534Z,101121.84
2019-02-21T17:32:45.888Z,101132.09
2019-02-21T17:35:18.364Z,101130.88
2019-02-21T17:37:50.871Z,101130.04
2019-02-21T17:40:23.643Z,101138.79
2019-02-21T17:42:55.430Z,101146.85
2019-02-21T17:45:27.282Z,101146.52
2019-02-21T17:47:59.494Z,101143.46
2019-02-21T17:50:31.731Z,101139.37
2019-02-21T17:53:03.499Z,101142.47
2019-02-21T17:55:36.077Z,101144.08
2019-02-21T17:58:08.297Z,101148.61
2019-02-21T18:00:41.003Z,101146.73
2019-02-21T18:03:12.303Z,101145.03
2019-02-21T18:05:44.618Z,101147.01
2019-02-21T18:08:16.670Z,101151.04
2019-02-21T18:10:49.030Z,101155.73
2019-02-21T18:13:21.066Z,101146.48
2019-02-21T18:15:53.255Z,101145.06
2019-02-21T18:18:25.585Z,101141.87
2019-02-21T18:20:57.593Z,101145.91
2019-02-21T18:23:29.733Z,101147.11
2019-02-21T18:26:07.139Z,101147.05
2019-02-21T18:28:37.467Z,101143.35
2019-02-21T18:31:06.787Z,101149.93
2019-02-21T18:33:36.144Z,101144.06
2019-02-21T18:36:05.551Z,101144.63
2019-02-21T18:38:36.222Z,101144.12
2019-02-21T18:41:05.745Z,101148.86
2019-02-21T18:43:35.021Z,101148.39
2019-02-21T18:46:04.484Z,101153.92
2019-02-21T18:48:33.897Z,101154.63
2019-02-21T18:51:03.251Z,101158.92
2019-02-21T18:53:33.191Z,101156.61
2019-02-21T18:56:03.549Z,101152.95
2019-02-21T18:58:32.904Z,101157.52
2019-02-21T19:01:02.452Z,101157.38
2019-02-21T19:03:31.871Z,101154.56
2019-02-21T19:06:01.329Z,101160.27
2019-02-21T19:08:30.692Z,101165.50
2019-02-21T19:11:00.079Z,101159.35
2019-02-21T19:13:29.416Z,101158.22
2019-02-21T19:15:58.759Z,101153.92
2019-02-21T19:18:28.076Z,101149.69
2019-02-21T19:20:57.584Z,101144.79
2019-02-21T19:23:26.939Z,101145.06
2019-02-21T19:25:56.247Z,101152.27
2019-02-21T19:28:26.144Z,101157.88
2019-02-21T19:31:03.544Z,101152.52
2019-02-21T19:33:32.919Z,101159.35
2019-02-21T19:36:02.454Z,101156.44
2019-02-21T19:38:31.749Z,101163.14
2019-02-21T19:41:01.162Z,101152.03
2019-02-21T19:43:30.996Z,101155.09
2019-02-21T19:46:00.672Z,101153.11
2019-02-21T19:48:30.976Z,101161.30
2019-02-21T19:51:00.336Z,101162.64
2019-02-21T19:53:29.740Z,101173.98
2019-02-21T19:55:59.084Z,101178.28
2019-02-21T19:58:28.576Z,101181.67
2019-02-21T20:00:58.899Z,101182.77
2019-02-21T20:03:28.872Z,101180.02
2019-02-21T20:05:58.146Z,101184.88
2019-02-21T20:08:27.439Z,101180.78
2019-02-21T20:10:56.872Z,101177.33
2019-02-21T20:13:26.299Z,101179.02
2019-02-21T20:15:55.781Z,101184.38
2019-02-21T20:18:25.216Z,101182.91
2019-02-21T20:20:54.528Z,101180.86
2019-02-21T20:23:23.888Z,101185.89
2019-02-21T20:25:53.282Z,101184.57
2019-02-21T20:28:22.647Z,101191.15
2019-02-21T20:30:52.012Z,101188.09
2019-02-21T20:33:21.505Z,101196.75
2019-02-21T20:35:50.853Z,101194.28
2019-02-21T20:38:20.170Z,101195.75
2019-02-21T20:40:49.528Z,101200.28
2019-02-21T20:43:19.802Z,101198.94
2019-02-21T20:45:52.967Z,101210.76
2019-02-21T20:48:18.980Z,101207.20
2019-02-21T20:50:56.596Z,101213.07
2019-02-21T20:53:17.728Z,101211.22
2019-02-21T20:55:47.184Z,101215.25
2019-02-21T20:58:16.920Z,101212.86
2019-02-21T21:00:46.256Z,101222.39
2019-02-21T21:03:15.630Z,101220.41
2019-02-21T21:05:45.071Z,101227.52
2019-02-21T21:08:14.323Z,101232.80
2019-02-21T21:10:43.664Z,101231.47
2019-02-21T21:13:12.982Z,101227.33
2019-02-21T21:15:43.300Z,101239.14
2019-02-21T21:18:12.655Z,101238.52
2019-02-21T21:20:43.383Z,101245.47
2019-02-21T21:23:12.729Z,101240.16
2019-02-21T21:25:43.033Z,101242.61
2019-02-21T21:28:18.992Z,101255.55
2019-02-21T21:30:48.341Z,101253.21
2019-02-21T21:33:17.705Z,101258.70
2019-02-21T21:35:47.065Z,101263.81
2019-02-21T21:38:23.801Z,101264.45
2019-02-21T21:40:45.736Z,101266.55
2019-02-21T21:43:15.901Z,101266.77
2019-02-21T21:45:45.939Z,101272.14
2019-02-21T21:48:16.075Z,101269.80
2019-02-21T21:50:45.401Z,101277.37
2019-02-21T21:53:14.703Z,101287.73
2019-02-21T21:55:44.029Z,101282.74
2019-02-21T21:58:13.396Z,101285.05
2019-02-21T22:00:42.852Z,101279.19
2019-02-21T22:03:12.222Z,101278.47
2019-02-21T22:05:41.543Z,101282.50
2019-02-21T22:08:10.866Z,101285.18
2019-02-21T22:10:40.380Z,101279.19
2019-02-21T22:13:09.700Z,101286.27
2019-02-21T22:15:39.576Z,101289.23
2019-02-21T22:18:08.984Z,101288.95
2019-02-21T22:20:38.272Z,101294.45
2019-02-21T22:23:07.644Z,101302.14
2019-02-21T22:25:37.368Z,101302.64
2019-02-21T22:28:06.370Z,101305.91
2019-02-21T22:30:35.748Z,101301.27
2019-02-21T22:33:05.220Z,101313.97
2019-02-21T22:35:34.575Z,101300.80
2019-02-21T22:38:03.901Z,101300.30
2019-02-21T22:40:33.253Z,101302.52
2019-02-21T22:43:02.617Z,101307.02
2019-02-21T22:45:31.997Z,101307.14
2019-02-21T22:48:02.046Z,101305.55
2019-02-21T22:50:31.511Z,101305.67
2019-02-21T22:53:00.852Z,101313.50
2019-02-21T22:55:30.144Z,101320.31
2019-02-21T22:57:59.464Z,101313.02
2019-02-21T23:00:45.728Z,101315.37
2019-02-21T23:03:17.638Z,101318.02
2019-02-21T23:06:23.522Z,101316.67
2019-02-21T23:08:53.904Z,101309.75
2019-02-21T23:11:23.562Z,101293.16
2019-02-21T23:13:52.965Z,101297.17
2019-02-21T23:16:22.351Z,101284.27
2019-02-21T23:18:51.740Z,101284.01
2019-02-21T23:21:21.780Z,101287.53
2019-02-21T23:23:51.749Z,101288.25
2019-02-21T23:26:21.105Z,101294.16
2019-02-21T23:28:50.420Z,101291.73
2019-02-21T23:31:19.754Z,101286.23
2019-02-21T23:33:52.469Z,101288.92
2019-02-21T23:36:21.769Z,101300.77
2019-02-21T23:38:53.383Z,101301.36
2019-02-21T23:41:22.702Z,101301.23
2019-02-21T23:43:52.080Z,101299.64
2019-02-21T23:46:21.537Z,101299.86
2019-02-21T23:48:50.848Z,101307.41
2019-02-21T23:51:20.149Z,101305.84
2019-02-21T23:53:49.508Z,101312.06
2019-02-21T23:56:18.859Z,101305.01
2019-02-21T23:58:48.209Z,101307.91
